sensor_id;sensor_type;location;lat;lon;timestamp;P1;durP1;ratioP1;P2;durP2;ratioP2
44430;SDS011;30135;47.866;-4.222;2024-02-21T00:01:07;7.93;;;0.90;;
44430;SDS011;30135;47.866;-4.222;2024-02-21T00:03:33;5.70;;;0.75;;
44430;SDS011;30135;47.866;-4.222;2024-02-21T00:05:59;6.38;;;0.98;;
44430;SDS011;30135;47.866;-4.222;2024-02-21T00:08:25;18.52;;;1.00;;
44430;SDS011;30135;47.866;-4.222;2024-02-21T00:10:51;2.35;;;0.90;;
44430;SDS011;30135;47.866;-4.222;2024-02-21T00:13:17;8.35;;;0.95;;
44430;SDS011;30135;47.866;-4.222;2024-02-21T00:15:43;20.83;;;3.83;;
44430;SDS011;30135;47.866;-4.222;2024-02-21T00:18:09;9.50;;;1.90;;
44430;SDS011;30135;47.866;-4.222;2024-02-21T00:20:36;6.40;;;1.75;;
44430;SDS011;30135;47.866;-4.222;2024-02-21T00:23:02;8.93;;;1.02;;
44430;SDS011;30135;47.866;-4.222;2024-02-21T00:25:28;6.60;;;0.82;;
44430;SDS011;30135;47.866;-4.222;2024-02-21T00:27:54;6.18;;;1.08;;
44430;SDS011;30135;47.866;-4.222;2024-02-21T00:30:20;13.13;;;1.63;;
44430;SDS011;30135;47.866;-4.222;2024-02-21T00:32:46;11.07;;;1.15;;
44430;SDS011;30135;47.866;-4.222;2024-02-21T00:35:13;10.05;;;0.82;;
44430;SDS011;30135;47.866;-4.222;2024-02-21T00:37:39;11.75;;;0.85;;
44430;SDS011;30135;47.866;-4.222;2024-02-21T00:40:05;7.32;;;0.80;;
44430;SDS011;30135;47.866;-4.222;2024-02-21T00:42:32;7.28;;;1.75;;
44430;SDS011;30135;47.866;-4.222;2024-02-21T00:44:58;8.07;;;0.70;;
44430;SDS011;30135;47.866;-4.222;2024-02-21T00:47:24;15.13;;;1.15;;
44430;SDS011;30135;47.866;-4.222;2024-02-21T00:49:50;7.68;;;1.08;;
44430;SDS011;30135;47.866;-4.222;2024-02-21T00:52:16;9.10;;;0.98;;
44430;SDS011;30135;47.866;-4.222;2024-02-21T00:54:42;8.20;;;1.13;;
44430;SDS011;30135;47.866;-4.222;2024-02-21T00:57:08;10.32;;;1.85;;
44430;SDS011;30135;47.866;-4.222;2024-02-21T00:59:34;7.13;;;1.05;;
44430;SDS011;30135;47.866;-4.222;2024-02-21T01:02:00;11.82;;;1.27;;
44430;SDS011;30135;47.866;-4.222;2024-02-21T01:04:26;8.02;;;1.10;;
44430;SDS011;30135;47.866;-4.222;2024-02-21T01:06:51;9.32;;;1.80;;
44430;SDS011;30135;47.866;-4.222;2024-02-21T01:09:17;11.25;;;0.98;;
44430;SDS011;30135;47.866;-4.222;2024-02-21T01:11:43;7.43;;;1.02;;
44430;SDS011;30135;47.866;-4.222;2024-02-21T01:14:09;13.10;;;1.25;;
44430;SDS011;30135;47.866;-4.222;2024-02-21T01:16:36;16.75;;;1.85;;
44430;SDS011;30135;47.866;-4.222;2024-02-21T01:19:02;5.82;;;1.02;;
44430;SDS011;30135;47.866;-4.222;2024-02-21T01:21:28;3.78;;;0.80;;
44430;SDS011;30135;47.866;-4.222;2024-02-21T01:23:54;3.80;;;0.85;;
44430;SDS011;30135;47.866;-4.222;2024-02-21T01:26:20;13.48;;;1.65;;
44430;SDS011;30135;47.866;-4.222;2024-02-21T01:28:46;5.28;;;0.75;;
44430;SDS011;30135;47.866;-4.222;2024-02-21T01:31:12;5.90;;;1.10;;
44430;SDS011;30135;47.866;-4.222;2024-02-21T01:33:38;9.52;;;0.85;;
44430;SDS011;30135;47.866;-4.222;2024-02-21T01:36:04;9.40;;;1.40;;
44430;SDS011;30135;47.866;-4.222;2024-02-21T01:41:00;13.60;;;1.05;;
44430;SDS011;30135;47.866;-4.222;2024-02-21T01:43:26;7.88;;;1.08;;
44430;SDS011;30135;47.866;-4.222;2024-02-21T01:45:53;7.40;;;2.28;;
44430;SDS011;30135;47.866;-4.222;2024-02-21T01:48:24;10.02;;;1.58;;
44430;SDS011;30135;47.866;-4.222;2024-02-21T01:50:50;5.60;;;0.68;;
44430;SDS011;30135;47.866;-4.222;2024-02-21T01:53:27;7.93;;;0.90;;
44430;SDS011;30135;47.866;-4.222;2024-02-21T01:55:57;8.52;;;1.15;;
44430;SDS011;30135;47.866;-4.222;2024-02-21T01:58:23;6.50;;;1.60;;
44430;SDS011;30135;47.866;-4.222;2024-02-21T02:00:50;6.28;;;1.05;;
44430;SDS011;30135;47.866;-4.222;2024-02-21T02:03:16;4.30;;;1.10;;
44430;SDS011;30135;47.866;-4.222;2024-02-21T02:05:49;9.48;;;1.10;;
44430;SDS011;30135;47.866;-4.222;2024-02-21T02:08:16;10.30;;;0.90;;
44430;SDS011;30135;47.866;-4.222;2024-02-21T02:10:44;4.90;;;1.80;;
44430;SDS011;30135;47.866;-4.222;2024-02-21T02:13:11;10.77;;;1.55;;
44430;SDS011;30135;47.866;-4.222;2024-02-21T02:15:40;10.68;;;1.38;;
44430;SDS011;30135;47.866;-4.222;2024-02-21T02:18:09;7.22;;;0.75;;
44430;SDS011;30135;47.866;-4.222;2024-02-21T02:20:35;3.08;;;0.55;;
44430;SDS011;30135;47.866;-4.222;2024-02-21T02:23:12;4.55;;;0.88;;
44430;SDS011;30135;47.866;-4.222;2024-02-21T02:25:46;5.78;;;1.00;;
44430;SDS011;30135;47.866;-4.222;2024-02-21T02:28:17;3.25;;;0.85;;
44430;SDS011;30135;47.866;-4.222;2024-02-21T02:30:44;8.60;;;0.82;;
44430;SDS011;30135;47.866;-4.222;2024-02-21T02:33:10;2.45;;;0.40;;
44430;SDS011;30135;47.866;-4.222;2024-02-21T02:35:36;7.45;;;0.63;;
44430;SDS011;30135;47.866;-4.222;2024-02-21T02:38:03;4.22;;;0.40;;
44430;SDS011;30135;47.866;-4.222;2024-02-21T02:40:30;1.88;;;0.38;;
44430;SDS011;30135;47.866;-4.222;2024-02-21T02:42:56;4.95;;;0.47;;
44430;SDS011;30135;47.866;-4.222;2024-02-21T02:45:23;6.55;;;1.27;;
44430;SDS011;30135;47.866;-4.222;2024-02-21T02:47:51;12.07;;;1.38;;
44430;SDS011;30135;47.866;-4.222;2024-02-21T02:50:22;7.10;;;0.85;;
44430;SDS011;30135;47.866;-4.222;2024-02-21T02:52:49;4.15;;;0.93;;
44430;SDS011;30135;47.866;-4.222;2024-02-21T02:55:15;2.30;;;0.43;;
44430;SDS011;30135;47.866;-4.222;2024-02-21T02:57:41;4.68;;;0.60;;
44430;SDS011;30135;47.866;-4.222;2024-02-21T03:00:08;10.73;;;0.93;;
44430;SDS011;30135;47.866;-4.222;2024-02-21T03:02:39;17.35;;;0.98;;
44430;SDS011;30135;47.866;-4.222;2024-02-21T03:05:12;6.85;;;0.85;;
44430;SDS011;30135;47.866;-4.222;2024-02-21T03:07:38;8.68;;;0.65;;
44430;SDS011;30135;47.866;-4.222;2024-02-21T03:10:04;15.15;;;1.10;;
44430;SDS011;30135;47.866;-4.222;2024-02-21T03:12:31;8.32;;;1.33;;
44430;SDS011;30135;47.866;-4.222;2024-02-21T03:14:57;12.50;;;1.00;;
44430;SDS011;30135;47.866;-4.222;2024-02-21T03:17:24;3.90;;;0.82;;
44430;SDS011;30135;47.866;-4.222;2024-02-21T03:19:52;3.55;;;0.88;;
44430;SDS011;30135;47.866;-4.222;2024-02-21T03:22:18;10.57;;;0.95;;
44430;SDS011;30135;47.866;-4.222;2024-02-21T03:24:44;6.80;;;0.52;;
44430;SDS011;30135;47.866;-4.222;2024-02-21T03:27:10;2.42;;;0.40;;
44430;SDS011;30135;47.866;-4.222;2024-02-21T03:29:36;18.90;;;2.90;;
44430;SDS011;30135;47.866;-4.222;2024-02-21T03:32:02;15.75;;;1.95;;
44430;SDS011;30135;47.866;-4.222;2024-02-21T03:34:28;14.80;;;1.17;;
44430;SDS011;30135;47.866;-4.222;2024-02-21T03:36:54;7.25;;;0.70;;
44430;SDS011;30135;47.866;-4.222;2024-02-21T03:39:20;6.97;;;0.60;;
44430;SDS011;30135;47.866;-4.222;2024-02-21T03:41:46;5.95;;;0.50;;
44430;SDS011;30135;47.866;-4.222;2024-02-21T03:44:13;9.65;;;0.70;;
44430;SDS011;30135;47.866;-4.222;2024-02-21T03:46:39;13.63;;;1.10;;
44430;SDS011;30135;47.866;-4.222;2024-02-21T03:49:06;7.43;;;0.75;;
44430;SDS011;30135;47.866;-4.222;2024-02-21T03:51:32;7.13;;;0.82;;
44430;SDS011;30135;47.866;-4.222;2024-02-21T03:53:58;5.60;;;0.40;;
44430;SDS011;30135;47.866;-4.222;2024-02-21T03:56:24;4.28;;;1.00;;
44430;SDS011;30135;47.866;-4.222;2024-02-21T03:58:50;9.15;;;1.48;;
44430;SDS011;30135;47.866;-4.222;2024-02-21T04:01:16;11.80;;;1.15;;
44430;SDS011;30135;47.866;-4.222;2024-02-21T04:03:42;6.93;;;0.82;;
44430;SDS011;30135;47.866;-4.222;2024-02-21T04:06:09;4.30;;;0.70;;
44430;SDS011;30135;47.866;-4.222;2024-02-21T04:08:35;7.07;;;1.48;;
44430;SDS011;30135;47.866;-4.222;2024-02-21T04:11:01;13.13;;;1.02;;
44430;SDS011;30135;47.866;-4.222;2024-02-21T04:13:28;6.43;;;1.42;;
44430;SDS011;30135;47.866;-4.222;2024-02-21T04:15:54;13.90;;;0.98;;
44430;SDS011;30135;47.866;-4.222;2024-02-21T04:18:20;10.02;;;0.60;;
44430;SDS011;30135;47.866;-4.222;2024-02-21T04:20:46;9.25;;;0.57;;
44430;SDS011;30135;47.866;-4.222;2024-02-21T04:23:12;7.53;;;0.63;;
44430;SDS011;30135;47.866;-4.222;2024-02-21T04:25:38;15.25;;;1.30;;
44430;SDS011;30135;47.866;-4.222;2024-02-21T04:28:04;8.48;;;0.88;;
44430;SDS011;30135;47.866;-4.222;2024-02-21T04:30:30;10.98;;;0.90;;
44430;SDS011;30135;47.866;-4.222;2024-02-21T04:32:56;19.23;;;1.55;;
44430;SDS011;30135;47.866;-4.222;2024-02-21T04:35:22;7.45;;;0.95;;
44430;SDS011;30135;47.866;-4.222;2024-02-21T04:37:55;9.27;;;1.30;;
44430;SDS011;30135;47.866;-4.222;2024-02-21T04:40:21;27.30;;;2.10;;
44430;SDS011;30135;47.866;-4.222;2024-02-21T04:42:47;12.75;;;1.10;;
44430;SDS011;30135;47.866;-4.222;2024-02-21T04:45:13;9.55;;;1.35;;
44430;SDS011;30135;47.866;-4.222;2024-02-21T04:47:39;12.40;;;1.77;;
44430;SDS011;30135;47.866;-4.222;2024-02-21T04:50:05;7.20;;;1.83;;
44430;SDS011;30135;47.866;-4.222;2024-02-21T04:52:31;10.35;;;0.93;;
44430;SDS011;30135;47.866;-4.222;2024-02-21T04:54:57;9.43;;;1.10;;
44430;SDS011;30135;47.866;-4.222;2024-02-21T04:57:23;13.07;;;1.42;;
44430;SDS011;30135;47.866;-4.222;2024-02-21T04:59:50;14.07;;;1.52;;
44430;SDS011;30135;47.866;-4.222;2024-02-21T05:02:16;11.57;;;1.25;;
44430;SDS011;30135;47.866;-4.222;2024-02-21T05:04:42;42.03;;;2.28;;
44430;SDS011;30135;47.866;-4.222;2024-02-21T05:07:09;17.15;;;1.60;;
44430;SDS011;30135;47.866;-4.222;2024-02-21T05:09:36;8.90;;;1.08;;
44430;SDS011;30135;47.866;-4.222;2024-02-21T05:12:03;9.30;;;2.10;;
44430;SDS011;30135;47.866;-4.222;2024-02-21T05:16:58;11.38;;;1.25;;
44430;SDS011;30135;47.866;-4.222;2024-02-21T05:19:24;20.13;;;1.27;;
44430;SDS011;30135;47.866;-4.222;2024-02-21T05:21:53;9.18;;;1.88;;
44430;SDS011;30135;47.866;-4.222;2024-02-21T05:24:19;9.68;;;0.98;;
44430;SDS011;30135;47.866;-4.222;2024-02-21T05:26:51;4.97;;;1.35;;
44430;SDS011;30135;47.866;-4.222;2024-02-21T05:29:19;14.18;;;1.92;;
44430;SDS011;30135;47.866;-4.222;2024-02-21T05:34:17;14.90;;;2.38;;
44430;SDS011;30135;47.866;-4.222;2024-02-21T05:36:43;18.33;;;1.40;;
44430;SDS011;30135;47.866;-4.222;2024-02-21T05:39:09;13.93;;;1.75;;
44430;SDS011;30135;47.866;-4.222;2024-02-21T05:41:36;12.63;;;1.65;;
44430;SDS011;30135;47.866;-4.222;2024-02-21T05:44:02;12.70;;;2.22;;
44430;SDS011;30135;47.866;-4.222;2024-02-21T05:46:28;16.15;;;2.30;;
44430;SDS011;30135;47.866;-4.222;2024-02-21T05:48:54;14.20;;;1.63;;
44430;SDS011;30135;47.866;-4.222;2024-02-21T05:51:20;21.27;;;2.00;;
44430;SDS011;30135;47.866;-4.222;2024-02-21T05:53:46;15.07;;;2.72;;
44430;SDS011;30135;47.866;-4.222;2024-02-21T05:56:12;10.55;;;1.30;;
44430;SDS011;30135;47.866;-4.222;2024-02-21T05:58:39;10.65;;;1.38;;
44430;SDS011;30135;47.866;-4.222;2024-02-21T06:01:05;13.13;;;1.52;;
44430;SDS011;30135;47.866;-4.222;2024-02-21T06:03:32;30.00;;;2.60;;
44430;SDS011;30135;47.866;-4.222;2024-02-21T06:05:59;10.50;;;2.75;;
44430;SDS011;30135;47.866;-4.222;2024-02-21T06:08:25;12.77;;;1.70;;
44430;SDS011;30135;47.866;-4.222;2024-02-21T06:10:51;17.77;;;1.67;;
44430;SDS011;30135;47.866;-4.222;2024-02-21T06:13:19;8.40;;;2.40;;
44430;SDS011;30135;47.866;-4.222;2024-02-21T06:15:46;7.78;;;1.20;;
44430;SDS011;30135;47.866;-4.222;2024-02-21T06:18:13;12.88;;;1.98;;
44430;SDS011;30135;47.866;-4.222;2024-02-21T06:20:39;10.55;;;2.20;;
44430;SDS011;30135;47.866;-4.222;2024-02-21T06:23:06;5.63;;;1.45;;
44430;SDS011;30135;47.866;-4.222;2024-02-21T06:25:33;11.38;;;1.85;;
44430;SDS011;30135;47.866;-4.222;2024-02-21T06:27:59;12.20;;;1.27;;
44430;SDS011;30135;47.866;-4.222;2024-02-21T06:30:24;11.43;;;1.27;;
44430;SDS011;30135;47.866;-4.222;2024-02-21T06:32:51;14.57;;;1.95;;
44430;SDS011;30135;47.866;-4.222;2024-02-21T06:35:21;17.55;;;1.40;;
44430;SDS011;30135;47.866;-4.222;2024-02-21T06:37:49;11.55;;;1.55;;
44430;SDS011;30135;47.866;-4.222;2024-02-21T06:40:22;14.45;;;1.90;;
44430;SDS011;30135;47.866;-4.222;2024-02-21T06:42:49;21.95;;;3.17;;
44430;SDS011;30135;47.866;-4.222;2024-02-21T06:45:16;8.65;;;1.95;;
44430;SDS011;30135;47.866;-4.222;2024-02-21T06:47:42;4.93;;;1.10;;
44430;SDS011;30135;47.866;-4.222;2024-02-21T06:50:09;21.48;;;2.55;;
44430;SDS011;30135;47.866;-4.222;2024-02-21T06:52:35;13.77;;;2.28;;
44430;SDS011;30135;47.866;-4.222;2024-02-21T06:55:02;22.50;;;2.38;;
44430;SDS011;30135;47.866;-4.222;2024-02-21T06:57:28;8.35;;;1.88;;
44430;SDS011;30135;47.866;-4.222;2024-02-21T06:59:55;6.95;;;1.02;;
44430;SDS011;30135;47.866;-4.222;2024-02-21T07:02:21;17.27;;;1.90;;
44430;SDS011;30135;47.866;-4.222;2024-02-21T07:04:47;16.55;;;2.28;;
44430;SDS011;30135;47.866;-4.222;2024-02-21T07:07:13;18.65;;;3.25;;
44430;SDS011;30135;47.866;-4.222;2024-02-21T07:09:39;14.60;;;1.92;;
44430;SDS011;30135;47.866;-4.222;2024-02-21T07:12:05;13.45;;;1.58;;
44430;SDS011;30135;47.866;-4.222;2024-02-21T07:14:32;7.30;;;1.55;;
44430;SDS011;30135;47.866;-4.222;2024-02-21T07:16:58;10.52;;;2.30;;
44430;SDS011;30135;47.866;-4.222;2024-02-21T07:19:24;13.05;;;1.83;;
44430;SDS011;30135;47.866;-4.222;2024-02-21T07:21:50;9.68;;;1.38;;
44430;SDS011;30135;47.866;-4.222;2024-02-21T07:24:23;9.02;;;1.10;;
44430;SDS011;30135;47.866;-4.222;2024-02-21T07:26:49;16.88;;;2.92;;
44430;SDS011;30135;47.866;-4.222;2024-02-21T07:29:14;9.88;;;2.47;;
44430;SDS011;30135;47.866;-4.222;2024-02-21T07:31:41;12.57;;;2.05;;
44430;SDS011;30135;47.866;-4.222;2024-02-21T07:34:08;6.60;;;1.40;;
44430;SDS011;30135;47.866;-4.222;2024-02-21T07:36:34;10.00;;;1.67;;
44430;SDS011;30135;47.866;-4.222;2024-02-21T07:39:00;16.60;;;1.75;;
44430;SDS011;30135;47.866;-4.222;2024-02-21T07:41:27;8.07;;;2.22;;
44430;SDS011;30135;47.866;-4.222;2024-02-21T07:43:55;12.82;;;1.10;;
44430;SDS011;30135;47.866;-4.222;2024-02-21T07:46:21;10.48;;;1.80;;
44430;SDS011;30135;47.866;-4.222;2024-02-21T07:48:47;8.77;;;1.38;;
44430;SDS011;30135;47.866;-4.222;2024-02-21T07:51:13;10.80;;;1.90;;
44430;SDS011;30135;47.866;-4.222;2024-02-21T07:53:43;12.60;;;1.73;;
44430;SDS011;30135;47.866;-4.222;2024-02-21T07:56:13;20.20;;;2.55;;
44430;SDS011;30135;47.866;-4.222;2024-02-21T07:58:41;6.38;;;1.67;;
44430;SDS011;30135;47.866;-4.222;2024-02-21T08:01:07;14.93;;;2.05;;
44430;SDS011;30135;47.866;-4.222;2024-02-21T08:03:34;12.45;;;2.72;;
44430;SDS011;30135;47.866;-4.222;2024-02-21T08:06:00;24.70;;;2.17;;
44430;SDS011;30135;47.866;-4.222;2024-02-21T08:08:28;14.50;;;2.22;;
44430;SDS011;30135;47.866;-4.222;2024-02-21T08:10:54;13.68;;;1.55;;
44430;SDS011;30135;47.866;-4.222;2024-02-21T08:13:20;13.07;;;1.45;;
44430;SDS011;30135;47.866;-4.222;2024-02-21T08:15:46;11.43;;;1.95;;
44430;SDS011;30135;47.866;-4.222;2024-02-21T08:18:15;7.07;;;1.50;;
44430;SDS011;30135;47.866;-4.222;2024-02-21T08:20:41;12.68;;;3.13;;
44430;SDS011;30135;47.866;-4.222;2024-02-21T08:23:07;10.65;;;1.80;;
44430;SDS011;30135;47.866;-4.222;2024-02-21T08:25:33;15.50;;;1.63;;
44430;SDS011;30135;47.866;-4.222;2024-02-21T08:27:59;15.57;;;2.47;;
44430;SDS011;30135;47.866;-4.222;2024-02-21T08:30:25;15.63;;;2.17;;
44430;SDS011;30135;47.866;-4.222;2024-02-21T08:32:51;13.25;;;1.80;;
44430;SDS011;30135;47.866;-4.222;2024-02-21T08:35:19;18.13;;;1.90;;
44430;SDS011;30135;47.866;-4.222;2024-02-21T08:37:48;3.65;;;0.98;;
44430;SDS011;30135;47.866;-4.222;2024-02-21T08:40:14;15.32;;;1.67;;
44430;SDS011;30135;47.866;-4.222;2024-02-21T08:42:42;10.30;;;1.63;;
44430;SDS011;30135;47.866;-4.222;2024-02-21T08:45:09;7.63;;;1.45;;
44430;SDS011;30135;47.866;-4.222;2024-02-21T08:47:35;12.73;;;2.13;;
44430;SDS011;30135;47.866;-4.222;2024-02-21T08:50:04;16.70;;;1.67;;
44430;SDS011;30135;47.866;-4.222;2024-02-21T08:52:31;10.15;;;2.05;;
44430;SDS011;30135;47.866;-4.222;2024-02-21T08:54:57;12.93;;;2.65;;
44430;SDS011;30135;47.866;-4.222;2024-02-21T08:57:23;13.23;;;1.45;;
44430;SDS011;30135;47.866;-4.222;2024-02-21T08:59:49;8.30;;;2.08;;
44430;SDS011;30135;47.866;-4.222;2024-02-21T09:02:15;21.13;;;1.75;;
44430;SDS011;30135;47.866;-4.222;2024-02-21T09:04:41;12.93;;;2.00;;
44430;SDS011;30135;47.866;-4.222;2024-02-21T09:07:09;10.95;;;2.10;;
44430;SDS011;30135;47.866;-4.222;2024-02-21T09:09:38;13.57;;;2.92;;
44430;SDS011;30135;47.866;-4.222;2024-02-21T09:12:07;11.48;;;1.85;;
44430;SDS011;30135;47.866;-4.222;2024-02-21T09:14:34;9.13;;;1.67;;
44430;SDS011;30135;47.866;-4.222;2024-02-21T09:17:03;12.27;;;2.45;;
44430;SDS011;30135;47.866;-4.222;2024-02-21T09:19:29;15.93;;;2.00;;
44430;SDS011;30135;47.866;-4.222;2024-02-21T09:21:55;24.10;;;2.65;;
44430;SDS011;30135;47.866;-4.222;2024-02-21T09:24:21;24.90;;;2.60;;
44430;SDS011;30135;47.866;-4.222;2024-02-21T09:26:47;23.17;;;2.50;;
44430;SDS011;30135;47.866;-4.222;2024-02-21T09:29:14;8.88;;;1.83;;
44430;SDS011;30135;47.866;-4.222;2024-02-21T09:31:41;13.57;;;2.00;;
44430;SDS011;30135;47.866;-4.222;2024-02-21T09:34:07;17.08;;;2.05;;
44430;SDS011;30135;47.866;-4.222;2024-02-21T09:36:33;19.08;;;2.45;;
44430;SDS011;30135;47.866;-4.222;2024-02-21T09:38:59;15.73;;;2.33;;
44430;SDS011;30135;47.866;-4.222;2024-02-21T09:41:28;24.65;;;2.55;;
44430;SDS011;30135;47.866;-4.222;2024-02-21T09:43:54;19.92;;;2.55;;
44430;SDS011;30135;47.866;-4.222;2024-02-21T09:46:21;23.98;;;3.20;;
44430;SDS011;30135;47.866;-4.222;2024-02-21T09:49:31;16.98;;;2.70;;
44430;SDS011;30135;47.866;-4.222;2024-02-21T09:52:01;13.30;;;2.08;;
44430;SDS011;30135;47.866;-4.222;2024-02-21T09:54:39;18.45;;;2.50;;
44430;SDS011;30135;47.866;-4.222;2024-02-21T09:57:09;13.40;;;2.00;;
44430;SDS011;30135;47.866;-4.222;2024-02-21T09:59:36;17.05;;;2.50;;
44430;SDS011;30135;47.866;-4.222;2024-02-21T10:02:06;35.17;;;4.20;;
44430;SDS011;30135;47.866;-4.222;2024-02-21T10:04:33;25.90;;;2.67;;
44430;SDS011;30135;47.866;-4.222;2024-02-21T10:06:59;19.23;;;2.67;;
44430;SDS011;30135;47.866;-4.222;2024-02-21T10:09:25;16.85;;;2.60;;
44430;SDS011;30135;47.866;-4.222;2024-02-21T10:11:53;45.03;;;3.47;;
44430;SDS011;30135;47.866;-4.222;2024-02-21T10:14:44;18.20;;;2.55;;
44430;SDS011;30135;47.866;-4.222;2024-02-21T10:17:15;16.05;;;2.22;;
44430;SDS011;30135;47.866;-4.222;2024-02-21T10:19:44;13.85;;;2.25;;
44430;SDS011;30135;47.866;-4.222;2024-02-21T10:22:10;26.45;;;2.97;;
44430;SDS011;30135;47.866;-4.222;2024-02-21T10:24:36;17.63;;;2.50;;
44430;SDS011;30135;47.866;-4.222;2024-02-21T10:27:09;18.75;;;2.25;;
44430;SDS011;30135;47.866;-4.222;2024-02-21T10:29:39;26.60;;;3.80;;
44430;SDS011;30135;47.866;-4.222;2024-02-21T10:32:07;22.05;;;2.53;;
44430;SDS011;30135;47.866;-4.222;2024-02-21T10:34:34;18.15;;;2.95;;
44430;SDS011;30135;47.866;-4.222;2024-02-21T10:37:02;25.20;;;2.58;;
44430;SDS011;30135;47.866;-4.222;2024-02-21T10:39:33;15.27;;;2.38;;
44430;SDS011;30135;47.866;-4.222;2024-02-21T10:42:03;28.85;;;3.38;;
44430;SDS011;30135;47.866;-4.222;2024-02-21T10:44:31;25.42;;;3.35;;
44430;SDS011;30135;47.866;-4.222;2024-02-21T10:46:58;28.98;;;3.00;;
44430;SDS011;30135;47.866;-4.222;2024-02-21T10:49:26;29.67;;;3.40;;
44430;SDS011;30135;47.866;-4.222;2024-02-21T10:51:55;24.50;;;2.85;;
44430;SDS011;30135;47.866;-4.222;2024-02-21T10:57:31;38.63;;;3.13;;
44430;SDS011;30135;47.866;-4.222;2024-02-21T10:59:58;29.20;;;3.70;;
44430;SDS011;30135;47.866;-4.222;2024-02-21T11:02:25;32.28;;;3.78;;
44430;SDS011;30135;47.866;-4.222;2024-02-21T11:04:55;29.10;;;3.20;;
44430;SDS011;30135;47.866;-4.222;2024-02-21T11:07:21;20.58;;;3.38;;
44430;SDS011;30135;47.866;-4.222;2024-02-21T11:09:51;25.38;;;3.30;;
44430;SDS011;30135;47.866;-4.222;2024-02-21T11:12:22;17.88;;;3.20;;
44430;SDS011;30135;47.866;-4.222;2024-02-21T11:15:04;29.80;;;3.47;;
44430;SDS011;30135;47.866;-4.222;2024-02-21T11:17:38;23.45;;;3.47;;
44430;SDS011;30135;47.866;-4.222;2024-02-21T11:20:13;26.83;;;4.20;;
44430;SDS011;30135;47.866;-4.222;2024-02-21T11:22:42;33.03;;;4.63;;
44430;SDS011;30135;47.866;-4.222;2024-02-21T11:25:09;40.38;;;4.93;;
44430;SDS011;30135;47.866;-4.222;2024-02-21T11:27:38;24.35;;;2.72;;
44430;SDS011;30135;47.866;-4.222;2024-02-21T11:30:04;23.10;;;4.07;;
44430;SDS011;30135;47.866;-4.222;2024-02-21T11:32:31;22.33;;;3.47;;
44430;SDS011;30135;47.866;-4.222;2024-02-21T11:35:04;33.58;;;4.50;;
44430;SDS011;30135;47.866;-4.222;2024-02-21T11:37:31;32.85;;;4.13;;
44430;SDS011;30135;47.866;-4.222;2024-02-21T11:39:59;32.47;;;3.60;;
44430;SDS011;30135;47.866;-4.222;2024-02-21T11:42:29;30.15;;;3.58;;
44430;SDS011;30135;47.866;-4.222;2024-02-21T11:44:56;30.77;;;4.28;;
44430;SDS011;30135;47.866;-4.222;2024-02-21T11:47:22;26.77;;;4.53;;
44430;SDS011;30135;47.866;-4.222;2024-02-21T11:49:49;31.23;;;4.68;;
44430;SDS011;30135;47.866;-4.222;2024-02-21T11:52:20;29.17;;;4.20;;
44430;SDS011;30135;47.866;-4.222;2024-02-21T11:54:50;27.48;;;3.53;;
44430;SDS011;30135;47.866;-4.222;2024-02-21T11:57:17;29.60;;;3.65;;
44430;SDS011;30135;47.866;-4.222;2024-02-21T11:59:44;31.35;;;3.25;;
44430;SDS011;30135;47.866;-4.222;2024-02-21T12:02:11;36.38;;;3.35;;
44430;SDS011;30135;47.866;-4.222;2024-02-21T12:04:38;22.73;;;3.22;;
44430;SDS011;30135;47.866;-4.222;2024-02-21T12:07:04;23.63;;;3.55;;
44430;SDS011;30135;47.866;-4.222;2024-02-21T12:09:31;28.88;;;3.65;;
44430;SDS011;30135;47.866;-4.222;2024-02-21T12:11:59;18.48;;;2.95;;
44430;SDS011;30135;47.866;-4.222;2024-02-21T12:14:31;20.10;;;2.85;;
44430;SDS011;30135;47.866;-4.222;2024-02-21T12:16:59;28.45;;;2.97;;
44430;SDS011;30135;47.866;-4.222;2024-02-21T12:19:28;30.48;;;5.25;;
44430;SDS011;30135;47.866;-4.222;2024-02-21T12:21:55;35.50;;;2.97;;
44430;SDS011;30135;47.866;-4.222;2024-02-21T12:24:23;38.05;;;4.38;;
44430;SDS011;30135;47.866;-4.222;2024-02-21T12:26:51;15.65;;;2.63;;
44430;SDS011;30135;47.866;-4.222;2024-02-21T12:29:18;24.00;;;3.22;;
44430;SDS011;30135;47.866;-4.222;2024-02-21T12:31:52;35.47;;;3.13;;
44430;SDS011;30135;47.866;-4.222;2024-02-21T12:34:19;28.67;;;3.60;;
44430;SDS011;30135;47.866;-4.222;2024-02-21T12:36:47;31.58;;;4.70;;
44430;SDS011;30135;47.866;-4.222;2024-02-21T12:39:13;17.08;;;2.60;;
44430;SDS011;30135;47.866;-4.222;2024-02-21T12:41:39;17.65;;;2.50;;
44430;SDS011;30135;47.866;-4.222;2024-02-21T12:44:09;27.75;;;2.92;;
44430;SDS011;30135;47.866;-4.222;2024-02-21T12:46:36;27.45;;;3.88;;
44430;SDS011;30135;47.866;-4.222;2024-02-21T12:49:03;18.85;;;2.70;;
44430;SDS011;30135;47.866;-4.222;2024-02-21T12:51:30;29.20;;;4.50;;
44430;SDS011;30135;47.866;-4.222;2024-02-21T12:53:57;16.25;;;3.70;;
44430;SDS011;30135;47.866;-4.222;2024-02-21T12:56:24;17.10;;;2.33;;
44430;SDS011;30135;47.866;-4.222;2024-02-21T12:58:55;36.33;;;3.15;;
44430;SDS011;30135;47.866;-4.222;2024-02-21T13:01:21;27.52;;;3.53;;
44430;SDS011;30135;47.866;-4.222;2024-02-21T13:03:47;16.30;;;2.47;;
44430;SDS011;30135;47.866;-4.222;2024-02-21T13:06:13;21.95;;;2.85;;
44430;SDS011;30135;47.866;-4.222;2024-02-21T13:08:39;22.25;;;2.50;;
44430;SDS011;30135;47.866;-4.222;2024-02-21T13:11:06;24.27;;;2.83;;
44430;SDS011;30135;47.866;-4.222;2024-02-21T13:13:32;21.40;;;2.75;;
44430;SDS011;30135;47.866;-4.222;2024-02-21T13:15:58;26.77;;;2.80;;
44430;SDS011;30135;47.866;-4.222;2024-02-21T13:18:24;23.27;;;3.13;;
44430;SDS011;30135;47.866;-4.222;2024-02-21T13:20:50;19.13;;;2.53;;
44430;SDS011;30135;47.866;-4.222;2024-02-21T13:23:23;20.63;;;2.42;;
44430;SDS011;30135;47.866;-4.222;2024-02-21T13:25:56;33.25;;;2.75;;
44430;SDS011;30135;47.866;-4.222;2024-02-21T13:28:22;23.13;;;2.22;;
44430;SDS011;30135;47.866;-4.222;2024-02-21T13:30:48;24.15;;;3.45;;
44430;SDS011;30135;47.866;-4.222;2024-02-21T13:33:14;19.67;;;2.38;;
44430;SDS011;30135;47.866;-4.222;2024-02-21T13:35:41;24.17;;;3.08;;
44430;SDS011;30135;47.866;-4.222;2024-02-21T13:38:07;27.88;;;5.07;;
44430;SDS011;30135;47.866;-4.222;2024-02-21T13:40:35;19.95;;;3.10;;
44430;SDS011;30135;47.866;-4.222;2024-02-21T13:43:00;14.73;;;2.60;;
44430;SDS011;30135;47.866;-4.222;2024-02-21T13:45:27;12.80;;;3.05;;
44430;SDS011;30135;47.866;-4.222;2024-02-21T13:47:53;14.43;;;1.73;;
44430;SDS011;30135;47.866;-4.222;2024-02-21T13:50:20;18.83;;;3.35;;
44430;SDS011;30135;47.866;-4.222;2024-02-21T13:52:48;25.48;;;2.65;;
44430;SDS011;30135;47.866;-4.222;2024-02-21T13:55:14;18.38;;;1.83;;
44430;SDS011;30135;47.866;-4.222;2024-02-21T13:57:40;15.23;;;1.92;;
44430;SDS011;30135;47.866;-4.222;2024-02-21T14:00:07;16.08;;;1.73;;
44430;SDS011;30135;47.866;-4.222;2024-02-21T14:02:36;11.77;;;1.83;;
44430;SDS011;30135;47.866;-4.222;2024-02-21T14:05:04;17.60;;;2.85;;
44430;SDS011;30135;47.866;-4.222;2024-02-21T14:07:31;29.27;;;2.90;;
44430;SDS011;30135;47.866;-4.222;2024-02-21T14:10:00;19.35;;;2.15;;
44430;SDS011;30135;47.866;-4.222;2024-02-21T14:12:26;28.17;;;3.13;;
44430;SDS011;30135;47.866;-4.222;2024-02-21T14:14:52;17.58;;;2.50;;
44430;SDS011;30135;47.866;-4.222;2024-02-21T14:17:18;14.77;;;1.98;;
44430;SDS011;30135;47.866;-4.222;2024-02-21T14:19:45;20.17;;;2.65;;
44430;SDS011;30135;47.866;-4.222;2024-02-21T14:22:11;19.48;;;2.08;;
44430;SDS011;30135;47.866;-4.222;2024-02-21T14:24:37;20.00;;;2.72;;
44430;SDS011;30135;47.866;-4.222;2024-02-21T14:27:03;23.17;;;2.50;;
44430;SDS011;30135;47.866;-4.222;2024-02-21T14:29:29;22.95;;;2.60;;
44430;SDS011;30135;47.866;-4.222;2024-02-21T14:31:55;25.55;;;3.03;;
44430;SDS011;30135;47.866;-4.222;2024-02-21T14:34:28;13.45;;;2.15;;
44430;SDS011;30135;47.866;-4.222;2024-02-21T14:36:54;22.80;;;2.15;;